Startpagina
METAR-TAF:

METAR-TAF

Vliegvelden :

Shell, Ecuador

breedte: 01-30-19S, lengte: 078-03-46W, hoogte: 1056 m

Actueel weer

Dit bericht is 1 uur en het 11 minuten geleden gemaakt, om 11:00 UTC
Wind 3 kt uit het westnoordwesten
Temperatuur 19°C
Vochtigheid 100%
Druk 1017 hPa
Zicht 10 km of meer
Weinig wolken op 1000 ft
Gebroken wolken op 2600 ft
Geheel bewolkt op 8000 ft
lichte regen

METAR: SESM 211100Z 30003KT 9999 -RA FEW010 BKN026 OVC080 19/19 Q1017 RMK A3005

Tijdstip: 07:11 (12:11 UTC)


TAF: ontbreekt

Waarnemingen en weersverwachtingen van meer dan 4000 vliegvelden (METAR en TAF).

De beschikbare stations zijn de gele en rode punten op de kaart.

Ga met uw muis naar het station om de naam te zien.

Klik dan om waarnemingen en weersverwachtingen te zien.

kaart wijzigen: klik op de groene knoppen met een zwart kruis om in te zoomen, op de groene knop met een streepje om uit te zoomen of op de groene pijlen voor aangrenzende kaarten.


METAR-TAF: